Time;durP1;ratioP1;P1;durP2;ratioP2;P2;SDS_P1;SDS_P2;PMS_P1;PMS_P2;Temp;Humidity;BMP_temperature;BMP_pressure;BME280_temperature;BME280_humidity;BME280_pressure;Samples;Min_cycle;Max_cycle;Signal;HPM_P1;HPM_P2
2023/10/12 00:01:25;;;;;;;12.23;8.77;;;13.70;85.00;;;13.55;79.59;97906.50;5050265;28;20501;-78
2023/10/12 00:03:58;;;;;;;10.40;7.23;;;13.80;84.80;;;13.51;79.90;97897.19;5057028;28;20454;-79
2023/10/12 00:06:30;;;;;;;11.40;8.00;;;13.80;84.70;;;13.54;79.80;97902.94;5051316;28;21082;-80
2023/10/12 00:09:03;;;;;;;11.57;7.80;;;13.80;84.60;;;13.42;79.88;97894.78;5059736;28;20448;-80
2023/10/12 00:11:38;;;;;;;12.53;8.33;;;13.80;84.60;;;13.35;80.80;97898.69;5065778;28;20564;-79
2023/10/12 00:14:06;;;;;;;8.60;6.83;;;13.70;84.80;;;13.21;81.24;97898.91;5044921;28;20476;-80
2023/10/12 00:16:35;;;;;;;14.60;8.00;;;13.60;85.00;;;12.99;81.46;97879.69;5050056;28;20534;-79
2023/10/12 00:19:03;;;;;;;11.40;8.10;;;13.50;85.00;;;12.85;81.83;97869.06;5045890;28;20931;-79
2023/10/12 00:21:35;;;;;;;12.23;7.87;;;13.40;85.20;;;12.94;82.07;97893.13;5068063;28;20509;-78
2023/10/12 00:24:06;;;;;;;13.83;8.13;;;13.30;85.40;;;12.84;82.52;97889.09;5054978;28;20466;-78
2023/10/12 00:26:34;;;;;;;12.13;7.30;;;13.20;85.50;;;12.84;82.61;97885.56;5066512;28;20550;-80
2023/10/12 00:29:02;;;;;;;13.70;7.90;;;13.20;85.80;;;12.81;82.67;97886.84;5061979;28;20558;-79
2023/10/12 00:31:30;;;;;;;14.43;8.17;;;13.10;85.80;;;12.83;82.64;97881.22;5056939;28;21005;-78
2023/10/12 00:33:58;;;;;;;15.17;8.03;;;13.10;86.00;;;12.81;82.86;97883.31;5067217;28;20476;-78
2023/10/12 00:36:25;;;;;;;12.73;7.93;;;13.10;86.00;;;12.68;83.00;97874.34;5067437;28;21152;-78
2023/10/12 00:38:56;;;;;;;12.83;7.13;;;13.00;86.30;;;12.53;83.50;97857.69;5063378;28;20457;-78
2023/10/12 00:41:25;;;;;;;17.83;7.27;;;12.90;86.50;;;12.60;83.84;97882.81;5048023;28;20455;-78
2023/10/12 00:43:59;;;;;;;11.97;7.47;;;12.80;87.10;;;12.14;83.62;97799.28;5045558;28;20561;-78
2023/10/12 00:46:40;;;;;;;20.97;8.37;;;12.80;87.30;;;12.68;83.61;97873.50;5059974;28;20471;-79
2023/10/12 00:49:17;;;;;;;12.10;6.93;;;12.80;87.50;;;12.63;83.92;97863.34;5059086;28;20447;-77
2023/10/12 00:51:51;;;;;;;10.20;7.50;;;12.80;87.80;;;12.67;83.62;97871.84;5067623;28;20455;-78
2023/10/12 00:54:27;;;;;;;9.53;7.23;;;12.90;87.70;;;12.68;83.63;97866.22;5056868;28;20475;-78
2023/10/12 00:57:02;;;;;;;12.23;7.70;;;12.90;87.60;;;12.73;83.68;97866.34;5050099;28;20451;-79
2023/10/12 00:59:31;;;;;;;13.40;7.77;;;12.90;87.60;;;12.61;83.55;97843.78;5059265;28;20455;-79
2023/10/12 01:02:00;;;;;;;16.33;7.70;;;12.90;87.60;;;12.59;83.44;97838.63;5066470;28;20784;-78
2023/10/12 01:04:28;;;;;;;8.20;7.30;;;13.00;87.60;;;12.68;82.95;97839.13;5046194;28;20445;-79
2023/10/12 01:06:59;;;;;;;11.83;7.03;;;13.00;87.30;;;12.77;82.97;97857.72;5050229;28;21071;-78
2023/10/12 01:09:38;;;;;;;11.90;7.30;;;13.00;87.10;;;12.72;82.86;97853.84;5039468;28;20988;-79
2023/10/12 01:12:13;;;;;;;10.43;6.93;;;13.00;86.90;;;12.70;83.10;97853.25;5065654;28;20448;-77
2023/10/12 01:14:43;;;;;;;10.70;6.80;;;13.00;87.00;;;12.70;83.23;97860.53;5060749;28;20475;-77
2023/10/12 01:17:16;;;;;;;11.70;7.70;;;12.90;87.10;;;12.64;83.45;97856.88;5061866;28;20547;-77
2023/10/12 01:19:47;;;;;;;14.10;6.67;;;12.80;87.50;;;12.55;83.99;97844.75;5061684;28;20452;-78
2023/10/12 01:22:25;;;;;;;10.23;7.17;;;12.80;87.70;;;12.42;84.31;97837.63;5054099;28;20500;-78
2023/10/12 01:25:01;;;;;;;11.27;6.90;;;12.70;88.10;;;12.51;84.38;97857.09;5060794;28;20993;-78
2023/10/12 01:27:32;;;;;;;10.27;7.50;;;12.70;88.30;;;12.49;84.25;97853.78;5062068;28;20970;-78
2023/10/12 01:30:16;;;;;;;10.60;6.70;;;12.70;88.40;;;12.55;84.15;97855.59;5059055;28;20479;-77
2023/10/12 01:32:51;;;;;;;12.93;6.97;;;12.70;88.70;;;12.43;84.47;97850.94;5044332;28;20454;-77
2023/10/12 01:35:26;;;;;;;12.67;6.80;;;12.70;88.90;;;12.47;84.57;97857.56;5044105;28;20466;-78
2023/10/12 01:38:00;;;;;;;12.57;7.00;;;12.60;88.50;;;12.49;84.55;97846.50;5041389;28;20482;-80
2023/10/12 01:40:41;;;;;;;12.33;7.53;;;12.70;88.90;;;12.60;83.94;97855.69;5061268;28;20458;-80
2023/10/12 01:43:12;;;;;;;10.70;7.60;;;12.70;88.80;;;12.33;84.01;97819.00;5060705;28;20452;-78
2023/10/12 01:45:42;;;;;;;10.60;6.80;;;12.80;88.30;;;12.65;84.00;97853.09;5057120;28;20441;-79
2023/10/12 01:48:11;;;;;;;9.17;7.43;;;12.80;88.20;;;12.59;83.69;97840.50;5047744;28;20480;-78
2023/10/12 01:50:39;;;;;;;16.23;6.67;;;12.90;88.00;;;12.45;84.36;97839.91;5065195;28;20460;-79
2023/10/12 01:53:22;;;;;;;13.87;6.80;;;12.80;88.00;;;12.55;84.34;97847.44;5064615;28;20769;-78
2023/10/12 01:55:51;;;;;;;12.20;6.93;;;12.90;88.30;;;12.29;84.72;97817.00;5045245;28;20463;-78
2023/10/12 01:58:20;;;;;;;11.37;7.37;;;12.80;88.40;;;12.58;84.15;97849.69;5058424;28;20484;-78
2023/10/12 02:00:51;;;;;;;10.80;7.10;;;12.80;88.20;;;12.59;84.04;97848.63;5054021;28;21240;-79
2023/10/12 02:03:26;;;;;;;8.63;6.77;;;12.80;87.90;;;12.64;83.93;97846.03;5055861;28;20750;-77
2023/10/12 02:05:58;;;;;;;9.67;7.30;;;12.90;87.80;;;12.63;83.87;97840.88;5065790;28;20958;-77
2023/10/12 02:08:32;;;;;;;10.20;6.87;;;13.00;87.80;;;12.61;83.90;97832.97;5042599;28;20560;-78
2023/10/12 02:11:06;;;;;;;13.53;6.70;;;13.00;87.70;;;12.70;83.57;97839.69;5060556;28;20491;-78
2023/10/12 02:13:35;;;;;;;8.97;7.00;;;13.00;87.60;;;12.78;82.98;97840.41;5065173;28;20452;-79
2023/10/12 02:16:03;;;;;;;9.93;6.70;;;13.00;87.50;;;12.82;82.67;97838.91;5045947;28;20476;-77
2023/10/12 02:18:32;;;;;;;9.10;6.70;;;13.10;87.40;;;12.87;82.14;97839.00;5066289;28;20498;-76
2023/10/12 02:21:07;;;;;;;11.83;7.07;;;13.10;87.00;;;12.90;81.81;97833.09;5045463;28;20737;-77
2023/10/12 02:23:54;;;;;;;8.80;6.10;;;13.20;87.00;;;13.03;81.41;97842.88;5060601;28;20487;-76
2023/10/12 02:26:35;;;;;;;12.30;6.53;;;13.30;86.50;;;13.14;80.64;97841.25;5060932;28;20458;-78
2023/10/12 02:29:12;;;;;;;8.30;5.37;;;13.40;86.20;;;13.26;79.98;97827.69;5051655;28;20446;-77
2023/10/12 02:31:46;;;;;;;12.00;6.63;;;13.50;85.80;;;13.30;79.41;97829.69;5056517;28;20476;-76
2023/10/12 02:34:15;;;;;;;10.83;6.77;;;13.50;85.40;;;13.35;78.69;97825.44;5040203;28;20482;-78
2023/10/12 02:36:45;;;;;;;7.83;6.10;;;13.60;85.30;;;13.39;78.54;97823.88;5034167;28;20925;-78
2023/10/12 02:39:20;;;;;;;9.83;5.83;;;13.60;85.10;;;13.52;78.05;97820.94;5061672;28;20459;-77
2023/10/12 02:41:53;;;;;;;9.00;5.40;;;13.70;85.00;;;13.42;78.19;97809.81;5049350;28;20996;-77
2023/10/12 02:44:20;;;;;;;7.93;5.47;;;13.70;84.80;;;13.49;78.21;97818.72;5062949;28;20444;-79
2023/10/12 02:47:01;;;;;;;8.07;5.57;;;13.70;84.80;;;13.49;78.02;97829.56;5045027;28;20460;-79
2023/10/12 02:49:29;;;;;;;12.47;6.17;;;13.70;84.80;;;13.19;77.76;97770.84;5063672;28;20448;-79
2023/10/12 02:51:58;;;;;;;8.17;6.30;;;13.60;84.90;;;13.39;78.76;97813.03;5064060;28;20450;-80
2023/10/12 02:54:27;;;;;;;8.03;5.97;;;13.60;85.00;;;13.43;78.18;97825.06;5044752;28;20471;-81
2023/10/12 02:56:56;;;;;;;7.10;5.43;;;13.60;84.80;;;13.35;78.64;97811.84;5062391;28;20933;-78
2023/10/12 02:59:25;;;;;;;9.87;6.40;;;13.50;84.90;;;13.38;78.78;97822.22;5042580;28;20509;-79
2023/10/12 03:02:12;;;;;;;9.40;6.63;;;13.50;85.10;;;13.38;78.91;97816.81;5060754;28;20453;-79
2023/10/12 03:04:40;;;;;;;8.57;6.63;;;13.50;85.10;;;13.25;79.25;97824.13;5042046;28;20464;-79
2023/10/12 03:07:12;;;;;;;14.70;6.33;;;13.50;85.20;;;12.75;79.74;97754.97;5040028;28;20938;-79
2023/10/12 03:09:43;;;;;;;9.73;6.03;;;13.50;85.30;;;12.94;79.74;97768.41;5034590;28;20449;-78
2023/10/12 03:12:10;;;;;;;11.60;6.83;;;13.50;85.40;;;13.06;80.15;97815.31;5067680;28;20472;-80
2023/10/12 03:14:40;;;;;;;7.57;6.00;;;13.40;85.40;;;12.60;79.74;97731.03;5046392;28;20558;-79
2023/10/12 03:17:09;;;;;;;7.87;6.20;;;13.40;85.30;;;12.97;80.26;97798.59;5063060;28;20535;-79
2023/10/12 03:19:46;;;;;;;5.93;5.40;;;13.40;85.50;;;13.07;80.69;97830.53;5062783;28;20444;-78
2023/10/12 03:22:25;;;;;;;11.50;6.10;;;13.40;85.60;;;13.03;80.40;97832.03;5068317;28;20471;-79
2023/10/12 03:25:02;;;;;;;10.10;5.83;;;13.30;85.50;;;12.44;80.39;97749.66;5065862;28;20447;-78
2023/10/12 03:27:33;;;;;;;7.53;5.50;;;13.30;85.70;;;12.55;81.08;97771.56;5067580;28;22797;-79
2023/10/12 03:30:07;;;;;;;11.60;6.53;;;13.10;86.10;;;12.71;82.06;97825.09;5068913;28;21129;-78
2023/10/12 03:32:34;;;;;;;9.57;6.90;;;13.00;86.30;;;12.78;82.63;97829.56;5059013;28;20469;-78
2023/10/12 03:35:04;;;;;;;10.77;6.20;;;12.90;87.10;;;12.67;82.63;97823.91;5067008;28;20475;-76
2023/10/12 03:37:45;;;;;;;9.97;5.60;;;12.80;87.20;;;12.36;83.12;97779.81;5051090;28;21023;-77
2023/10/12 03:43:13;;;;;;;12.60;6.47;;;12.90;87.60;;;13.01;81.14;97813.31;5017452;28;20449;-79
2023/10/12 03:45:51;;;;;;;11.53;7.07;;;13.10;87.10;;;13.24;80.21;97822.47;5041787;28;20445;-79
2023/10/12 03:48:33;;;;;;;11.00;6.47;;;13.30;86.50;;;13.16;79.62;97790.31;5065986;28;20464;-79
2023/10/12 03:51:17;;;;;;;9.67;6.73;;;13.40;86.00;;;13.39;79.12;97813.88;5064517;28;20968;-79
2023/10/12 03:53:53;;;;;;;10.40;6.60;;;13.50;85.70;;;13.49;78.67;97816.00;5042905;28;20449;-78
2023/10/12 03:56:36;;;;;;;10.30;6.30;;;13.70;85.30;;;13.43;78.63;97825.06;5048011;28;20473;-79
2023/10/12 03:59:06;;;;;;;10.30;6.10;;;13.60;85.20;;;13.40;79.09;97815.50;5046652;28;20449;-80
2023/10/12 04:01:39;;;;;;;8.50;5.87;;;13.60;85.20;;;13.48;79.04;97816.22;5065945;28;20464;-79
2023/10/12 04:04:16;;;;;;;9.33;6.40;;;13.60;85.30;;;13.54;78.27;97816.09;5066016;28;20444;-79
2023/10/12 04:07:16;;;;;;;9.80;6.30;;;13.70;85.10;;;13.46;78.21;97820.00;5051142;28;20443;-78
2023/10/12 04:09:43;;;;;;;9.40;6.27;;;13.70;84.90;;;13.40;78.56;97814.66;5062410;28;20459;-80
2023/10/12 04:12:19;;;;;;;10.70;5.53;;;13.60;85.20;;;13.55;78.37;97823.16;5044314;28;22970;-80
2023/10/12 04:14:53;;;;;;;10.03;6.70;;;13.60;85.50;;;13.39;78.76;97824.72;5057628;28;20452;-79
2023/10/12 04:20:15;;;;;;;6.57;5.73;;;13.50;85.30;;;13.44;78.63;97824.03;5047831;28;20551;-79
2023/10/12 04:23:15;;;;;;;7.90;6.00;;;13.50;85.40;;;13.41;78.38;97822.59;5047088;28;20460;-79
2023/10/12 04:25:49;;;;;;;8.87;5.90;;;13.60;85.30;;;13.03;78.93;97767.78;5063207;28;20457;-79
2023/10/12 04:28:22;;;;;;;7.80;5.60;;;13.50;85.40;;;13.29;79.28;97841.59;5059254;28;20456;-78
2023/10/12 04:31:28;;;;;;;9.43;6.00;;;13.50;85.30;;;13.32;79.15;97846.53;5056695;28;20544;-80
2023/10/12 04:34:05;;;;;;;9.90;6.17;;;13.50;85.50;;;13.37;78.71;97836.88;5042565;28;20456;-79
2023/10/12 04:36:43;;;;;;;12.00;6.40;;;13.50;85.60;;;13.42;78.39;97834.25;5047467;28;20475;-79
2023/10/12 04:39:15;;;;;;;7.07;5.50;;;13.60;85.40;;;13.45;78.33;97844.69;5065558;28;20856;-78
2023/10/12 04:41:49;;;;;;;13.00;7.07;;;13.60;85.10;;;13.34;79.13;97842.78;5047395;28;20459;-78
2023/10/12 04:44:35;;;;;;;13.87;6.27;;;13.50;85.30;;;13.36;79.21;97846.06;5037105;28;20453;-80
2023/10/12 04:47:06;;;;;;;9.50;6.60;;;13.50;85.50;;;13.46;78.85;97851.75;5061817;28;20460;-79
2023/10/12 04:52:32;;;;;;;10.70;7.07;;;13.60;85.40;;;13.63;77.80;97845.59;5047149;28;20454;-79
2023/10/12 04:55:06;;;;;;;9.70;5.70;;;13.70;84.90;;;13.68;77.85;97842.97;5058352;28;20475;-77
2023/10/12 04:57:38;;;;;;;13.87;6.77;;;13.80;85.00;;;13.66;77.75;97840.50;5060492;28;20554;-77
2023/10/12 05:00:17;;;;;;;8.70;5.97;;;13.90;84.90;;;13.64;77.68;97847.25;5063114;28;20464;-77
2023/10/12 05:03:05;;;;;;;6.57;5.73;;;13.90;84.50;;;13.65;77.84;97841.59;5045583;28;20457;-76
2023/10/12 05:08:17;;;;;;;10.47;6.27;;;13.90;84.40;;;13.59;77.73;97839.81;5063225;28;20499;-76
2023/10/12 05:10:48;;;;;;;9.03;6.10;;;13.90;84.40;;;13.56;78.30;97843.00;5045286;28;20448;-75
2023/10/12 05:13:20;;;;;;;16.23;6.83;;;13.80;84.50;;;13.50;78.54;97852.13;5061025;28;20531;-75
2023/10/12 05:15:55;;;;;;;9.03;6.67;;;13.80;84.60;;;13.53;78.54;97840.78;5049034;28;20461;-75
2023/10/12 05:18:25;;;;;;;10.90;6.73;;;13.80;84.70;;;13.45;78.54;97840.06;5040666;28;20793;-75
2023/10/12 05:20:53;;;;;;;10.50;6.57;;;13.80;84.60;;;13.51;78.40;97846.44;5045168;28;20961;-74
2023/10/12 05:23:21;;;;;;;7.90;6.20;;;13.80;84.70;;;13.50;78.62;97841.25;5059763;28;20455;-72
2023/10/12 05:25:53;;;;;;;14.70;7.23;;;13.80;84.60;;;13.54;78.72;97848.66;5062407;28;20448;-72
2023/10/12 05:28:27;;;;;;;10.27;6.73;;;13.80;84.90;;;13.48;78.45;97855.06;5064255;28;20472;-82
2023/10/12 05:31:09;;;;;;;9.83;6.27;;;13.70;84.60;;;13.44;78.63;97859.31;5057196;28;20500;-69
2023/10/12 05:33:43;;;;;;;7.83;6.77;;;13.80;84.60;;;13.47;78.48;97853.41;5058964;28;20463;-70
2023/10/12 05:36:12;;;;;;;10.77;5.97;;;13.70;84.70;;;13.54;78.32;97858.72;5063253;28;20471;-72
2023/10/12 05:38:48;;;;;;;9.03;6.70;;;13.80;84.60;;;13.67;77.79;97854.91;5062126;28;20534;-71
2023/10/12 05:41:21;;;;;;;11.07;7.07;;;13.80;84.70;;;13.68;77.25;97862.81;5062848;28;20449;-71
2023/10/12 05:43:49;;;;;;;15.27;7.40;;;13.90;84.50;;;13.66;77.88;97873.09;5061443;28;20452;-72
2023/10/12 05:46:20;;;;;;;10.73;6.40;;;13.90;84.50;;;13.82;77.25;97871.50;5047179;28;20452;-71
2023/10/12 05:48:49;;;;;;;9.73;6.70;;;14.00;84.80;;;13.79;76.97;97880.13;5058339;28;20463;-71
2023/10/12 05:51:21;;;;;;;11.97;7.13;;;14.00;84.20;;;13.84;76.72;97888.38;5041503;28;20445;-71
2023/10/12 05:53:49;;;;;;;15.60;7.63;;;14.00;84.20;;;13.96;76.47;97888.38;5037051;28;20454;-70
2023/10/12 05:56:18;;;;;;;14.93;7.30;;;14.10;84.20;;;13.98;76.33;97879.97;5060650;28;20477;-71
2023/10/12 05:58:47;;;;;;;9.60;6.50;;;14.20;84.10;;;13.97;76.38;97878.31;5037358;28;20460;-75
2023/10/12 06:01:31;;;;;;;15.50;7.20;;;14.20;83.80;;;13.80;75.77;97848.34;5066062;28;20453;-74
2023/10/12 06:04:00;;;;;;;10.30;6.83;;;14.20;83.60;;;13.95;76.25;97878.56;5058705;28;20449;-75
2023/10/12 06:06:32;;;;;;;7.47;6.43;;;14.20;83.70;;;14.03;75.80;97871.94;5059280;28;20453;-73
2023/10/12 06:08:59;;;;;;;14.37;6.57;;;14.30;83.60;;;14.05;75.32;97891.53;5042550;28;20987;-74
2023/10/12 06:11:27;;;;;;;17.30;7.03;;;14.30;83.50;;;14.13;75.04;97888.41;5050985;28;20895;-75
2023/10/12 06:13:59;;;;;;;13.37;7.03;;;14.30;83.50;;;14.19;75.51;97896.69;5055181;28;20873;-75
2023/10/12 06:16:28;;;;;;;14.50;7.50;;;14.40;83.60;;;14.26;75.00;97897.34;5055269;28;20477;-73
2023/10/12 06:18:55;;;;;;;8.73;6.03;;;14.40;83.40;;;14.28;75.09;97898.75;5059514;28;20536;-74
2023/10/12 06:21:24;;;;;;;10.77;6.70;;;14.40;83.60;;;14.34;75.04;97915.16;5044419;28;20805;-75
2023/10/12 06:23:51;;;;;;;12.30;6.00;;;14.50;83.50;;;14.41;75.19;97905.78;5059306;28;20472;-74
2023/10/12 06:26:29;;;;;;;9.73;6.60;;;14.60;83.70;;;14.42;74.55;97912.88;5065901;28;21110;-75
2023/10/12 06:28:57;;;;;;;8.27;5.67;;;14.60;83.40;;;14.60;73.85;97908.28;5064910;28;20542;-76
2023/10/12 06:31:29;;;;;;;10.13;6.30;;;14.70;83.30;;;14.65;74.03;97915.72;5061171;28;20451;-75
2023/10/12 06:33:59;;;;;;;29.93;7.90;;;14.80;83.30;;;14.77;74.20;97935.56;5055481;28;20454;-76
2023/10/12 06:36:38;;;;;;;10.30;6.63;;;14.90;83.30;;;14.93;74.01;97938.53;5055832;28;20482;-77
2023/10/12 06:42:09;;;;;;;17.30;6.90;;;15.00;83.40;;;15.04;73.75;97958.56;5056748;28;20500;-69
2023/10/12 06:44:35;;;;;;;12.40;7.50;;;15.10;83.40;;;15.15;72.77;97969.38;5060320;28;20465;-70
2023/10/12 06:47:33;;;;;;;9.30;5.97;;;15.20;83.10;;;15.41;71.18;97947.22;5064528;28;20956;-70
2023/10/12 06:49:51;;;;;;;9.50;7.57;;;15.40;82.50;;;15.53;70.65;97947.13;5065943;28;20757;-71
2023/10/12 06:52:19;;;;;;;14.27;8.73;;;15.60;82.00;;;15.55;71.43;97955.84;5061931;28;20449;-68
2023/10/12 06:54:54;;;;;;;11.70;6.40;;;15.60;82.30;;;15.71;70.81;97965.09;5061378;28;20464;-69
2023/10/12 06:57:36;;;;;;;14.67;6.80;;;15.80;81.90;;;15.88;70.27;97964.22;5062972;28;20475;-69
2023/10/12 07:00:18;;;;;;;16.53;7.27;;;15.90;81.70;;;16.12;69.56;97957.47;5065225;28;20524;-68
2023/10/12 07:02:51;;;;;;;16.90;7.47;;;16.20;81.60;;;16.32;68.35;97957.97;5059869;28;20464;-69
2023/10/12 07:05:20;;;;;;;11.67;6.70;;;16.40;81.10;;;16.54;67.31;97956.06;5064361;28;20458;-70
2023/10/12 07:07:51;;;;;;;11.43;6.47;;;16.60;80.40;;;16.71;66.85;97953.22;5070449;28;21025;-69
2023/10/12 07:10:27;;;;;;;16.97;8.33;;;16.80;80.20;;;17.03;65.93;97956.28;5069454;28;20907;-68
2023/10/12 07:13:00;;;;;;;21.60;8.70;;;17.00;79.80;;;17.25;65.07;97965.22;5067622;28;20536;-69
2023/10/12 07:15:32;;;;;;;16.23;8.00;;;17.30;79.40;;;17.34;64.20;97975.66;5069421;28;20454;-69
2023/10/12 07:18:06;;;;;;;10.20;7.43;;;17.50;78.40;;;17.54;63.75;97977.72;5064893;28;20447;-69
2023/10/12 07:20:46;;;;;;;15.93;7.90;;;17.70;78.30;;;17.77;62.55;97981.16;5069334;28;20535;-69
2023/10/12 07:23:15;;;;;;;15.87;7.53;;;17.90;77.50;;;17.72;62.34;97976.50;5049135;28;20459;-68
2023/10/12 07:25:45;;;;;;;9.90;6.97;;;18.00;77.00;;;17.54;62.98;97989.47;5066672;28;20446;-69
2023/10/12 07:28:18;;;;;;;12.53;7.97;;;17.70;76.90;;;17.80;62.53;97986.09;5070862;28;20470;-69
2023/10/12 07:31:05;;;;;;;16.03;7.17;;;17.90;76.90;;;17.70;62.62;97978.66;5071861;28;20453;-69
2023/10/12 07:33:32;;;;;;;13.87;7.30;;;17.90;76.80;;;17.67;62.90;97987.41;5070271;28;20463;-69
2023/10/12 07:36:11;;;;;;;9.63;7.27;;;17.80;76.60;;;17.79;62.69;98001.66;5068084;28;20477;-69
2023/10/12 07:38:40;;;;;;;12.90;6.73;;;17.90;76.70;;;18.07;61.50;98002.41;5074758;28;20679;-68
2023/10/12 07:41:09;;;;;;;12.20;7.20;;;18.10;76.40;;;17.90;62.26;98001.72;5068696;28;20447;-68
2023/10/12 07:43:38;;;;;;;8.47;6.57;;;18.00;76.30;;;18.40;61.06;98011.31;5052970;28;20460;-69
2023/10/12 07:46:13;;;;;;;17.33;6.97;;;18.30;76.00;;;18.35;61.03;98022.25;5065640;28;20455;-69
2023/10/12 07:48:42;;;;;;;10.03;6.83;;;18.50;75.70;;;18.19;60.89;98010.38;5068093;28;20476;-70
2023/10/12 07:51:25;;;;;;;15.27;7.60;;;18.40;75.40;;;17.98;62.27;98014.91;5048816;28;20444;-70
2023/10/12 07:53:59;;;;;;;13.07;7.30;;;18.20;75.60;;;17.86;63.07;98000.63;5042506;28;20474;-77
2023/10/12 07:56:33;;;;;;;11.43;7.10;;;18.20;76.20;;;17.87;62.86;98005.00;5041941;28;20475;-76
2023/10/12 07:59:01;;;;;;;16.93;8.30;;;18.10;76.10;;;18.06;62.71;98000.75;5064143;28;20477;-77
2023/10/12 08:04:29;;;;;;;14.77;7.47;;;18.20;76.30;;;17.87;63.24;98021.41;5062431;28;20958;-78
2023/10/12 08:06:56;;;;;;;10.20;7.57;;;18.00;76.20;;;17.92;63.05;98005.84;5068101;28;20450;-76
2023/10/12 08:09:47;;;;;;;12.30;7.50;;;18.10;76.30;;;18.08;62.74;98008.72;5048893;28;20460;-76
2023/10/12 08:12:30;;;;;;;15.50;8.27;;;18.10;76.30;;;18.05;62.46;98012.78;5045282;28;20901;-75
2023/10/12 08:15:07;;;;;;;11.10;6.80;;;18.20;76.10;;;18.15;62.62;98008.47;5048942;28;20483;-76
2023/10/12 08:17:35;;;;;;;14.37;7.60;;;18.20;76.30;;;18.23;62.30;98018.88;5066273;28;20574;-76
2023/10/12 08:22:58;;;;;;;13.27;7.20;;;18.30;76.20;;;18.34;62.42;98039.75;5047325;28;20448;-76
2023/10/12 08:25:37;;;;;;;8.80;6.67;;;18.30;76.10;;;18.38;62.14;98029.91;5070195;28;20444;-76
2023/10/12 08:28:18;;;;;;;17.63;7.23;;;18.40;76.20;;;18.39;62.58;98028.81;5064895;28;20546;-78
2023/10/12 08:30:57;;;;;;;11.90;6.90;;;18.40;76.30;;;18.40;62.29;98033.19;5050422;28;20479;-77
2023/10/12 08:36:24;;;;;;;9.50;6.53;;;18.40;76.30;;;18.43;62.88;98026.38;5061820;28;20467;-77
2023/10/12 08:38:53;;;;;;;12.10;7.10;;;18.50;76.60;;;18.76;62.16;98023.50;5075634;28;20445;-86
2023/10/12 08:42:13;;;;;;;8.53;7.30;;;18.60;76.60;;;18.79;62.71;98034.72;5065126;28;20520;-83
2023/10/12 08:44:19;;;;;;;10.40;6.90;;;18.60;76.80;;;18.70;62.73;98041.81;5057194;28;20756;-82
2023/10/12 08:46:56;;;;;;;17.63;8.60;;;18.60;76.80;;;18.65;63.29;98033.56;5077187;28;20710;-77
2023/10/12 08:49:42;;;;;;;16.20;8.87;;;18.60;77.00;;;18.80;63.10;98036.38;5070578;28;20454;-84
2023/10/12 08:52:19;;;;;;;18.87;7.83;;;18.70;77.20;;;18.69;62.71;98026.47;5067795;28;20448;-85
2023/10/12 08:54:54;;;;;;;12.30;7.70;;;18.70;76.60;;;18.86;61.95;98028.97;5069424;28;20526;-87
2023/10/12 08:57:35;;;;;;;15.83;8.33;;;18.80;76.40;;;18.80;62.05;98010.91;5068105;28;20477;-83
2023/10/12 09:00:24;;;;;;;15.00;8.60;;;18.80;76.30;;;19.14;61.41;98017.88;5069101;28;20510;-89
2023/10/12 09:02:58;;;;;;;19.13;9.70;;;19.00;76.20;;;19.17;61.20;98018.13;5044540;28;20459;-87
2023/10/12 09:05:28;;;;;;;16.90;8.33;;;19.10;76.10;;;18.93;61.49;98015.88;5070188;28;20542;-83
2023/10/12 09:08:24;;;;;;;23.07;8.63;;;19.20;75.60;;;18.65;61.65;98012.50;5043216;28;20513;-80
2023/10/12 09:10:55;;;;;;;23.60;8.03;;;18.90;75.30;;;18.93;60.62;97996.72;5059079;28;20467;-80
2023/10/12 09:13:28;;;;;;;12.23;7.97;;;19.00;75.30;;;19.03;60.45;98012.38;5059723;28;20459;-76
2023/10/12 09:15:58;;;;;;;13.60;7.93;;;19.10;75.00;;;19.14;59.92;98007.72;5067071;28;20489;-78
2023/10/12 09:18:29;;;;;;;11.80;8.03;;;19.30;74.70;;;19.27;59.76;98008.28;5067404;28;20548;-78
2023/10/12 09:21:03;;;;;;;16.13;8.00;;;19.30;74.70;;;19.50;59.20;98013.22;5059394;28;20440;-79
2023/10/12 09:23:45;;;;;;;19.40;8.20;;;19.50;74.50;;;19.53;58.62;97998.97;5063513;28;20439;-78
2023/10/12 09:26:15;;;;;;;14.80;8.40;;;19.50;74.30;;;19.87;58.50;98013.19;5066729;28;20950;-79
2023/10/12 09:29:03;;;;;;;14.87;7.87;;;19.80;74.40;;;19.98;57.88;98014.84;5065434;28;20450;-79
2023/10/12 09:37:06;;;;;;;11.40;8.23;;;20.30;73.90;;;20.60;56.40;98025.63;5050204;28;20512;-79
2023/10/12 09:39:34;;;;;;;15.13;9.70;;;20.60;73.20;;;20.53;55.96;98019.59;5062658;28;20549;-79
2023/10/12 09:42:13;;;;;;;10.03;7.47;;;20.60;72.40;;;20.69;54.31;98016.78;5065653;28;20449;-79
2023/10/12 09:44:43;;;;;;;11.67;6.27;;;20.80;71.20;;;20.85;54.16;98015.66;5065132;28;20962;-79
2023/10/12 09:47:15;;;;;;;9.93;6.10;;;20.90;70.80;;;20.98;52.92;98010.63;5066213;28;20454;-78
2023/10/12 09:49:54;;;;;;;8.40;6.17;;;20.90;70.00;;;20.92;51.67;97966.72;5064002;28;20456;-78
2023/10/12 09:52:42;;;;;;;7.43;5.40;;;21.10;68.80;;;21.01;52.68;98004.59;5065250;28;20458;-79
2023/10/12 09:55:15;;;;;;;8.20;5.50;;;21.00;69.20;;;20.79;53.72;98009.34;5061775;28;20558;-78
2023/10/12 09:57:49;;;;;;;7.17;5.17;;;20.90;69.40;;;20.88;53.11;98009.59;5065098;28;20468;-79
2023/10/12 10:00:27;;;;;;;9.90;6.80;;;20.90;69.20;;;21.13;52.31;98015.22;5049359;28;20861;-79
2023/10/12 10:02:59;;;;;;;10.63;7.20;;;21.00;68.70;;;20.88;53.13;98011.50;5059190;28;20436;-78
2023/10/12 10:05:51;;;;;;;6.90;5.93;;;21.00;68.70;;;20.91;53.27;97998.03;5040787;28;20982;-77
2023/10/12 10:08:22;;;;;;;8.60;6.60;;;20.90;69.00;;;20.96;53.01;97999.94;5069110;28;20507;-79
2023/10/12 10:10:57;;;;;;;9.43;7.13;;;21.00;68.60;;;20.48;54.15;98011.41;5066450;28;20453;-78
2023/10/12 10:13:46;;;;;;;6.60;5.90;;;20.80;68.70;;;20.54;54.01;98007.53;5067526;28;20451;-78
2023/10/12 10:16:17;;;;;;;10.63;6.33;;;20.60;68.80;;;20.56;54.20;97994.38;5066028;28;20455;-78
2023/10/12 10:18:56;;;;;;;8.33;6.20;;;20.50;68.90;;;20.73;53.63;98006.91;5071035;28;20842;-76
2023/10/12 10:21:30;;;;;;;10.10;6.43;;;20.60;68.80;;;20.63;54.00;98011.34;5056677;28;20458;-78
2023/10/12 10:23:59;;;;;;;10.43;6.70;;;20.60;68.70;;;20.25;54.66;97997.25;5054805;28;20495;-77
2023/10/12 10:26:31;;;;;;;8.30;5.90;;;20.50;69.10;;;20.52;54.42;98021.53;5050794;28;20946;-78
2023/10/12 10:29:04;;;;;;;10.77;6.40;;;20.40;69.10;;;20.63;54.41;98025.06;5051118;28;20461;-77
2023/10/12 10:31:41;;;;;;;15.50;6.23;;;20.50;69.20;;;20.79;53.70;98023.06;5046450;28;20444;-78
2023/10/12 10:34:12;;;;;;;9.33;6.30;;;20.60;68.90;;;20.79;53.98;98022.22;5065067;28;20455;-77
2023/10/12 10:36:40;;;;;;;10.50;6.70;;;20.60;69.10;;;20.78;53.85;98037.06;5069980;28;20477;-77
2023/10/12 10:39:28;;;;;;;9.57;6.47;;;20.70;68.70;;;20.77;54.22;98021.69;5061484;28;20518;-78
2023/10/12 10:42:00;;;;;;;10.80;6.10;;;20.70;69.00;;;20.94;53.61;98016.69;5047332;28;20917;-76
2023/10/12 10:44:29;;;;;;;13.33;6.57;;;20.80;68.90;;;20.55;54.04;97973.53;5063732;28;20496;-78
2023/10/12 10:47:06;;;;;;;13.50;6.83;;;20.80;68.80;;;20.91;53.88;98019.16;5060825;28;20445;-78
2023/10/12 10:49:34;;;;;;;10.90;6.10;;;20.90;68.70;;;21.01;53.28;98007.34;5058600;28;20476;-78
2023/10/12 10:52:13;;;;;;;13.80;6.93;;;21.00;68.50;;;21.10;53.03;98024.81;5062565;28;20467;-78
2023/10/12 10:54:56;;;;;;;8.23;6.90;;;21.00;68.30;;;21.46;52.69;98018.25;5053415;28;20463;-77
2023/10/12 10:57:32;;;;;;;10.23;6.27;;;21.20;68.50;;;21.30;52.85;98004.66;5059314;28;20475;-78
2023/10/12 10:59:59;;;;;;;6.57;5.37;;;21.30;68.30;;;21.36;52.96;98013.66;5071334;28;20458;-78
2023/10/12 11:02:28;;;;;;;10.30;6.57;;;21.20;68.20;;;21.43;54.25;98016.09;5051538;28;20582;-78
2023/10/12 11:05:00;;;;;;;10.53;5.63;;;21.30;69.30;;;21.55;52.45;98018.47;5064018;28;20459;-76
2023/10/12 11:07:27;;;;;;;12.20;6.10;;;21.50;68.30;;;21.64;53.52;98019.50;5064656;28;20946;-79
2023/10/12 11:12:43;;;;;;;9.57;5.90;;;21.70;68.00;;;21.94;51.54;98017.59;5036530;28;20459;-78
2023/10/12 11:15:11;;;;;;;8.63;6.50;;;21.80;67.70;;;21.87;51.80;98012.44;5064698;28;20460;-79